Granville, Massachusetts
Current Conditions -  °F | °C
As of 6:53 PM on Saturday 20 Dec 2014 (Local Time) from KBAF Reporting Station
Overcast Overcast  
Wind Chill: 32°   Ceiling: 3600
Heat Index: 32°   Visibility: 10mi
Dew Point: 22°   Wind: 3mph
Humidity: 66%   Direction: 10°N
Pressure: 30.28"   Gusts: NA
Location:  42.07°N, 72.86°W
Report Text: KBAF 202353Z 01003KT 10SM OVC036 00/M06 A3028 RMK AO2 SLP261 T00001056 10011 20000 53011
Loading
Personal Weather Stations






























Interactive Weather Map New forecast layout! Learn more

10-Day Weather Forecast

Advertisements
Track Severe Weather on mobile